createdAt,value
2023-05-06T00:03:01.565Z,13.00
2023-05-06T00:08:00.212Z,13.00
2023-05-06T00:12:58.762Z,12.90
2023-05-06T00:17:57.612Z,12.90
2023-05-06T00:22:57.511Z,13.00
2023-05-06T00:27:55.979Z,12.90
2023-05-06T00:32:54.719Z,13.00
2023-05-06T00:37:59.522Z,12.90
2023-05-06T00:42:57.979Z,13.00
2023-05-06T00:47:57.814Z,13.10
2023-05-06T00:53:00.306Z,13.10
2023-05-06T00:57:59.111Z,13.00
2023-05-06T01:02:57.359Z,13.10
2023-05-06T01:08:05.172Z,13.10
2023-05-06T01:13:09.662Z,13.00
2023-05-06T01:18:12.341Z,13.00
2023-05-06T01:23:14.029Z,12.90
2023-05-06T01:28:13.417Z,13.00
2023-05-06T01:33:22.145Z,13.00
2023-05-06T01:38:31.543Z,12.90
2023-05-06T01:43:34.763Z,12.90
2023-05-06T01:48:37.663Z,13.00
2023-05-06T01:54:44.862Z,12.90
2023-05-06T01:59:46.729Z,12.90
2023-05-06T02:04:45.321Z,13.00
2023-05-06T02:09:44.088Z,13.00
2023-05-06T02:14:42.863Z,12.90
2023-05-06T02:19:42.925Z,13.00
2023-05-06T02:24:41.413Z,12.90
2023-05-06T02:29:39.880Z,12.90
2023-05-06T02:34:38.448Z,12.90
2023-05-06T02:39:37.863Z,12.90
2023-05-06T02:44:37.488Z,13.20
2023-05-06T02:49:36.096Z,13.00
2023-05-06T02:54:34.550Z,12.80
2023-05-06T02:59:34.315Z,12.90
2023-05-06T03:04:32.851Z,12.80
2023-05-06T03:09:31.484Z,12.70
2023-05-06T03:14:30.225Z,12.80
2023-05-06T03:25:53.606Z,13.00
2023-05-06T03:30:53.242Z,13.00
2023-05-06T03:35:51.814Z,13.10
2023-05-06T03:40:54.508Z,13.10
2023-05-06T03:45:53.744Z,13.10
2023-05-06T03:50:52.714Z,13.00
2023-05-06T03:55:53.309Z,13.00
2023-05-06T04:00:52.126Z,13.10
2023-05-06T04:05:51.605Z,13.00
2023-05-06T04:10:56.556Z,13.10
2023-05-06T04:16:00.543Z,13.20
2023-05-06T04:21:06.218Z,13.20
2023-05-06T04:26:09.863Z,13.30
2023-05-06T04:38:06.368Z,13.30
2023-05-06T04:43:07.562Z,13.30
2023-05-06T04:48:07.108Z,13.30
2023-05-06T04:53:05.914Z,13.20
2023-05-06T04:58:06.344Z,13.20
2023-05-06T05:03:05.779Z,13.30
2023-05-06T05:08:04.796Z,13.30
2023-05-06T05:13:08.191Z,13.20
2023-05-06T05:18:07.700Z,13.20
2023-05-06T05:23:07.166Z,13.30
2023-05-06T05:28:07.365Z,13.40
2023-05-06T05:33:07.806Z,13.40
2023-05-06T05:38:06.604Z,13.50
2023-05-06T05:43:07.281Z,13.50
2023-05-06T05:48:10.005Z,13.50
2023-05-06T05:53:09.298Z,13.50
2023-05-06T05:58:11.558Z,13.60
2023-05-06T06:03:11.608Z,13.70
2023-05-06T06:08:10.120Z,13.70
2023-05-06T06:13:11.513Z,13.60
2023-05-06T06:18:10.124Z,13.70
2023-05-06T06:23:11.470Z,13.60
2023-05-06T06:28:11.788Z,13.70
2023-05-06T06:33:12.654Z,13.70
2023-05-06T06:38:12.081Z,13.60
2023-05-06T06:43:12.236Z,13.70
2023-05-06T06:48:32.014Z,13.60
2023-05-06T06:53:30.486Z,13.70
2023-05-06T06:58:30.048Z,13.70
2023-05-06T07:03:28.145Z,13.70
2023-05-06T07:08:26.930Z,13.70
2023-05-06T07:13:25.445Z,13.80
2023-05-06T07:18:25.249Z,13.90
2023-05-06T07:23:23.732Z,13.90
2023-05-06T07:28:22.456Z,14.10
2023-05-06T07:33:21.202Z,14.00
2023-05-06T07:38:22.894Z,14.00
2023-05-06T07:44:12.163Z,14.10
2023-05-06T07:49:10.663Z,14.10
2023-05-06T07:54:10.533Z,14.00
2023-05-06T07:59:08.988Z,14.10
2023-05-06T08:04:07.799Z,14.10
2023-05-06T08:09:06.450Z,14.30
2023-05-06T08:14:06.237Z,14.30
2023-05-06T08:19:04.683Z,14.40
2023-05-06T08:24:03.903Z,14.40
2023-05-06T08:29:03.472Z,14.50
2023-05-06T08:47:53.385Z,14.40
2023-05-06T08:52:52.328Z,14.50
2023-05-06T08:57:51.817Z,14.50
2023-05-06T09:02:50.271Z,14.50
2023-05-06T09:07:50.118Z,14.60
2023-05-06T09:12:48.683Z,14.60
2023-05-06T09:17:47.191Z,14.70
2023-05-06T09:22:45.727Z,14.70
2023-05-06T09:27:45.223Z,14.70
2023-05-06T09:32:43.410Z,14.80
2023-05-06T09:37:41.933Z,14.80
2023-05-06T09:42:40.066Z,14.80
2023-05-06T09:47:41.721Z,14.80
2023-05-06T09:52:40.021Z,14.80
2023-05-06T09:57:38.550Z,14.70
2023-05-06T10:02:37.994Z,14.70
2023-05-06T10:07:38.334Z,14.80
2023-05-06T10:12:37.697Z,14.90
2023-05-06T10:17:36.700Z,15.00
2023-05-06T10:22:47.123Z,15.10
2023-05-06T10:27:47.368Z,15.10
2023-05-06T10:32:47.534Z,15.20
2023-05-06T10:37:48.906Z,15.20
2023-05-06T10:42:47.498Z,15.20
2023-05-06T10:48:09.276Z,15.30
2023-05-06T10:53:09.190Z,15.40
2023-05-06T10:58:15.098Z,15.50
2023-05-06T11:03:14.812Z,15.60
2023-05-06T11:08:14.935Z,15.70
2023-05-06T11:13:28.228Z,15.70
2023-05-06T11:18:42.776Z,15.70
2023-05-06T11:24:11.551Z,15.80
2023-05-06T11:29:10.018Z,15.80
2023-05-06T11:34:11.247Z,15.80
2023-05-06T11:39:11.084Z,15.80
2023-05-06T11:44:12.353Z,15.80
2023-05-06T11:49:15.156Z,15.80
2023-05-06T11:54:16.728Z,15.90
2023-05-06T11:59:15.334Z,15.80
2023-05-06T12:04:14.136Z,15.90
2023-05-06T12:09:15.004Z,15.90
2023-05-06T12:14:14.135Z,16.00
2023-05-06T12:19:12.652Z,16.00
2023-05-06T12:24:12.778Z,16.00
2023-05-06T12:29:15.917Z,16.00
2023-05-06T12:34:15.216Z,15.90
2023-05-06T12:39:14.160Z,15.80
2023-05-06T12:44:35.352Z,15.80
2023-05-06T12:49:48.122Z,15.70
2023-05-06T12:54:47.455Z,15.70
2023-05-06T12:59:47.520Z,15.70
2023-05-06T13:04:47.153Z,15.80
2023-05-06T13:09:45.936Z,15.80
2023-05-06T13:14:44.383Z,15.80
2023-05-06T13:19:44.736Z,15.80
2023-05-06T13:24:43.170Z,15.80
2023-05-06T13:29:41.272Z,15.80
2023-05-06T13:34:40.028Z,15.90
2023-05-06T13:39:39.822Z,15.90
2023-05-06T13:44:38.518Z,16.00
2023-05-06T13:49:36.981Z,16.10
2023-05-06T13:54:35.808Z,16.30
2023-05-06T13:59:35.639Z,16.40
2023-05-06T14:04:34.630Z,16.40
2023-05-06T14:09:32.751Z,16.50
2023-05-06T14:14:31.521Z,16.60
2023-05-06T14:19:31.392Z,16.70
2023-05-06T14:24:29.808Z,16.60
2023-05-06T14:29:28.245Z,16.50
2023-05-06T14:34:27.014Z,16.50
2023-05-06T14:39:26.592Z,16.50
2023-05-06T14:44:25.096Z,16.50
2023-05-06T14:49:23.551Z,16.40
2023-05-06T14:54:21.999Z,16.40
2023-05-06T14:59:22.990Z,16.40
2023-05-06T15:04:21.095Z,16.30
2023-05-06T15:09:19.848Z,16.20
2023-05-06T15:14:18.340Z,16.10
2023-05-06T15:19:18.633Z,15.90
2023-05-06T15:24:17.051Z,15.70
2023-05-06T15:29:15.503Z,15.70
2023-05-06T15:34:14.625Z,15.60
2023-05-06T15:39:14.860Z,15.50
2023-05-06T15:49:45.383Z,15.40
2023-05-06T15:54:37.641Z,15.30
2023-05-06T15:59:35.970Z,15.20
2023-05-06T16:04:34.914Z,15.20
2023-05-06T16:09:34.881Z,15.20
2023-05-06T16:14:33.344Z,15.20
2023-05-06T16:19:35.094Z,15.20
2023-05-06T16:24:34.977Z,15.10
2023-05-06T16:29:33.426Z,15.10
2023-05-06T16:34:32.246Z,15.20
2023-05-06T16:46:22.734Z,15.10
2023-05-06T16:51:22.445Z,15.00
2023-05-06T16:56:21.010Z,14.90
2023-05-06T17:01:20.854Z,14.70
2023-05-06T17:06:19.555Z,14.70
2023-05-06T17:11:17.976Z,14.70
2023-05-06T17:16:16.633Z,14.80
2023-05-06T17:21:17.766Z,14.70
2023-05-06T17:26:18.474Z,14.70
2023-05-06T17:31:16.645Z,14.70
2023-05-06T17:36:17.294Z,14.70
2023-05-06T17:41:15.959Z,14.60
2023-05-06T17:46:14.530Z,14.60
2023-05-06T17:51:13.082Z,14.60
2023-05-06T17:56:12.899Z,14.50
2023-05-06T18:01:11.886Z,14.30
2023-05-06T18:06:10.439Z,14.10
2023-05-06T18:11:08.917Z,14.00
2023-05-06T18:16:09.538Z,13.80
2023-05-06T18:21:07.794Z,13.90
2023-05-06T18:26:07.456Z,13.90
2023-05-06T18:31:06.627Z,14.00
2023-05-06T18:36:07.185Z,14.00
2023-05-06T18:41:06.852Z,13.90
2023-05-06T18:46:05.588Z,14.00
2023-05-06T18:51:15.511Z,14.10
2023-05-06T18:56:15.186Z,14.20
2023-05-06T19:01:13.384Z,14.00
2023-05-06T19:06:12.804Z,13.90
2023-05-06T19:11:18.457Z,14.00
2023-05-06T19:16:16.944Z,13.90
2023-05-06T19:21:16.029Z,13.80
2023-05-06T19:26:16.870Z,13.80
2023-05-06T19:31:15.503Z,13.90
2023-05-06T19:36:13.973Z,13.80
2023-05-06T19:41:12.541Z,13.80
2023-05-06T19:46:12.782Z,13.70
2023-05-06T19:51:11.250Z,13.60
2023-05-06T19:56:10.747Z,13.60
2023-05-06T20:01:09.271Z,13.60
2023-05-06T20:06:08.863Z,13.60
2023-05-06T20:11:07.300Z,13.60
2023-05-06T20:16:06.091Z,13.60
2023-05-06T20:21:05.242Z,13.60
2023-05-06T20:33:00.521Z,13.50
2023-05-06T20:37:59.087Z,13.50
2023-05-06T20:42:57.221Z,13.50
2023-05-06T20:47:55.793Z,13.60
2023-05-06T21:06:45.071Z,13.50
2023-05-06T21:11:43.504Z,13.30
2023-05-06T21:16:42.214Z,13.30
2023-05-06T21:21:40.344Z,13.30
2023-05-06T21:26:40.280Z,13.40
2023-05-06T21:31:38.575Z,13.50
2023-05-06T21:36:37.642Z,13.40
2023-05-06T21:48:33.301Z,13.40
2023-05-06T21:53:31.748Z,13.40
2023-05-06T21:58:30.181Z,13.40
2023-05-06T22:03:29.219Z,13.30
2023-05-06T22:08:30.170Z,13.20
2023-05-06T22:13:28.793Z,13.30
2023-05-06T22:18:28.310Z,13.30
2023-05-06T22:23:28.434Z,13.30
2023-05-06T22:28:26.850Z,13.30
2023-05-06T22:33:25.335Z,13.30
2023-05-06T22:38:23.882Z,13.30
2023-05-06T22:43:23.865Z,13.20
2023-05-06T22:48:22.830Z,13.10
2023-05-06T22:53:21.275Z,13.00
2023-05-06T22:58:19.718Z,12.90
2023-05-06T23:03:19.700Z,12.80
2023-05-06T23:08:18.251Z,12.80
2023-05-06T23:13:17.332Z,12.90
2023-05-06T23:18:15.991Z,12.90
2023-05-06T23:23:15.464Z,12.90
2023-05-06T23:28:14.243Z,12.90
2023-05-06T23:33:12.725Z,12.80
2023-05-06T23:38:11.214Z,12.80
2023-05-06T23:43:11.667Z,12.70
2023-05-06T23:48:10.334Z,12.80
2023-05-06T23:53:08.786Z,12.70
2023-05-06T23:58:06.897Z,12.70
